Time;durP1;ratioP1;P1;durP2;ratioP2;P2;SDS_P1;SDS_P2;PMS_P1;PMS_P2;Temp;Humidity;BMP_temperature;BMP_pressure;BME280_temperature;BME280_humidity;BME280_pressure;Samples;Min_cycle;Max_cycle;Signal;HPM_P1;HPM_P2
2022/05/20 00:01:43;;;;;;;3.27;1.70;;;;;;;;;;5029548;28;20185;-85
2022/05/20 00:04:47;;;;;;;5.13;2.10;;;;;;;;;;5021685;28;20180;-85
2022/05/20 00:07:51;;;;;;;3.00;1.80;;;;;;;;;;5021544;28;20180;-85
2022/05/20 00:10:55;;;;;;;3.77;1.90;;;;;;;;;;5032658;28;20220;-84
2022/05/20 00:13:59;;;;;;;4.03;2.27;;;;;;;;;;5021778;28;20184;-84
2022/05/20 00:17:05;;;;;;;5.70;2.00;;;;;;;;;;5021694;28;20176;-84
2022/05/20 00:20:10;;;;;;;4.80;1.90;;;;;;;;;;5021512;28;20694;-84
2022/05/20 00:23:14;;;;;;;6.63;1.87;;;;;;;;;;5032259;28;20200;-84
2022/05/20 00:26:19;;;;;;;2.03;1.70;;;;;;;;;;5032554;28;20200;-84
2022/05/20 00:29:23;;;;;;;2.43;2.00;;;;;;;;;;5043874;28;20172;-84
2022/05/20 00:32:27;;;;;;;5.43;2.27;;;;;;;;;;5032832;28;20627;-84
2022/05/20 00:35:31;;;;;;;4.33;2.20;;;;;;;;;;5021503;28;20193;-84
2022/05/20 00:38:35;;;;;;;5.93;2.10;;;;;;;;;;5032327;28;20559;-84
2022/05/20 00:41:39;;;;;;;4.33;2.20;;;;;;;;;;5032333;28;20646;-84
2022/05/20 00:44:44;;;;;;;4.47;2.00;;;;;;;;;;5032529;28;20639;-84
2022/05/20 00:47:48;;;;;;;3.63;2.10;;;;;;;;;;5032225;28;20176;-84
2022/05/20 00:51:01;;;;;;;4.50;2.13;;;;;;;;;;5021018;28;20208;-84
2022/05/20 00:54:07;;;;;;;5.57;2.07;;;;;;;;;;5043715;28;20176;-84
2022/05/20 00:57:16;;;;;;;5.73;2.30;;;;;;;;;;5032288;28;20184;-84
2022/05/20 01:00:24;;;;;;;3.63;1.83;;;;;;;;;;5031673;28;20227;-84
2022/05/20 01:03:30;;;;;;;5.03;1.83;;;;;;;;;;5032471;28;20181;-84
2022/05/20 01:06:34;;;;;;;6.07;2.10;;;;;;;;;;5031516;28;20200;-84
2022/05/20 01:09:39;;;;;;;2.30;2.10;;;;;;;;;;5042803;28;20215;-84
2022/05/20 01:12:43;;;;;;;4.00;2.03;;;;;;;;;;5031540;28;20203;-84
2022/05/20 01:15:48;;;;;;;2.40;2.10;;;;;;;;;;5019995;28;20176;-84
2022/05/20 01:18:53;;;;;;;10.50;2.50;;;;;;;;;;5031473;28;20204;-84
2022/05/20 01:21:57;;;;;;;5.57;2.20;;;;;;;;;;5020636;28;20180;-84
2022/05/20 01:25:02;;;;;;;3.20;2.27;;;;;;;;;;5031679;28;20179;-84
2022/05/20 01:28:06;;;;;;;3.53;2.10;;;;;;;;;;5020508;28;20185;-83
2022/05/20 01:31:15;;;;;;;6.67;2.10;;;;;;;;;;5042638;28;20223;-84
2022/05/20 01:34:20;;;;;;;6.63;2.57;;;;;;;;;;5031566;28;20180;-84
2022/05/20 01:37:24;;;;;;;3.30;1.90;;;;;;;;;;5031276;28;20200;-84
2022/05/20 01:40:44;;;;;;;3.80;2.33;;;;;;;;;;5020063;28;20227;-84
2022/05/20 01:44:18;;;;;;;4.30;2.53;;;;;;;;;;5031314;28;20180;-84
2022/05/20 01:47:28;;;;;;;4.63;2.30;;;;;;;;;;5020171;28;20172;-84
2022/05/20 01:50:39;;;;;;;2.57;2.30;;;;;;;;;;5031078;28;20685;-84
2022/05/20 01:53:54;;;;;;;5.83;2.50;;;;;;;;;;5030869;28;20635;-84
2022/05/20 01:57:08;;;;;;;4.97;2.00;;;;;;;;;;5042094;28;20196;-84
2022/05/20 02:00:16;;;;;;;4.73;2.67;;;;;;;;;;5030721;28;20228;-84
2022/05/20 02:03:31;;;;;;;3.43;2.33;;;;;;;;;;5019804;28;20192;-84
2022/05/20 02:06:48;;;;;;;2.93;2.20;;;;;;;;;;5031021;28;20180;-84
2022/05/20 02:10:20;;;;;;;7.77;2.40;;;;;;;;;;5042086;28;20219;-84
2022/05/20 02:13:28;;;;;;;5.37;2.17;;;;;;;;;;5030859;28;20180;-84
2022/05/20 02:16:37;;;;;;;4.17;2.50;;;;;;;;;;5030895;28;20180;-84
2022/05/20 02:19:52;;;;;;;7.17;2.47;;;;;;;;;;5030508;28;20583;-84
2022/05/20 02:23:03;;;;;;;5.97;2.63;;;;;;;;;;5030430;28;20200;-84
2022/05/20 02:26:10;;;;;;;2.87;2.53;;;;;;;;;;5030841;28;20188;-84
2022/05/20 02:29:23;;;;;;;5.60;2.53;;;;;;;;;;5030649;28;20180;-84
2022/05/20 02:32:34;;;;;;;2.57;2.10;;;;;;;;;;5041874;28;20188;-84
2022/05/20 02:35:41;;;;;;;5.00;2.43;;;;;;;;;;5041984;28;20180;-84
2022/05/20 02:38:45;;;;;;;5.27;2.47;;;;;;;;;;5019337;28;20627;-84
2022/05/20 02:41:49;;;;;;;3.43;2.80;;;;;;;;;;5041558;28;20180;-84
2022/05/20 02:44:57;;;;;;;5.93;3.00;;;;;;;;;;5030045;28;20176;-84
2022/05/20 02:48:01;;;;;;;7.27;2.73;;;;;;;;;;5030276;28;20631;-83
2022/05/20 02:51:05;;;;;;;5.23;2.97;;;;;;;;;;5030464;28;20208;-84
2022/05/20 02:54:09;;;;;;;6.13;2.50;;;;;;;;;;5030272;28;20180;-83
2022/05/20 02:57:13;;;;;;;3.40;2.43;;;;;;;;;;5019002;28;20172;-84
2022/05/20 03:07:03;;;;;;;5.23;3.00;;;;;;;;;;5029895;28;20184;-84
2022/05/20 03:10:08;;;;;;;4.33;2.77;;;;;;;;;;5028712;28;20228;-84
2022/05/20 03:13:13;;;;;;;3.50;2.67;;;;;;;;;;5017902;28;20192;-84
2022/05/20 03:16:17;;;;;;;9.17;2.83;;;;;;;;;;5019245;28;20192;-84
2022/05/20 03:19:21;;;;;;;7.10;2.90;;;;;;;;;;5018775;28;20168;-84
2022/05/20 03:22:26;;;;;;;3.27;2.87;;;;;;;;;;5007239;28;20185;-83
2022/05/20 03:25:30;;;;;;;3.97;2.50;;;;;;;;;;5010429;28;20173;-83
2022/05/20 03:28:34;;;;;;;3.33;2.80;;;;;;;;;;5016404;28;20196;-84
2022/05/20 03:31:39;;;;;;;4.70;2.80;;;;;;;;;;5017561;28;20532;-84
2022/05/20 03:34:43;;;;;;;4.80;2.83;;;;;;;;;;5041072;28;20180;-84
2022/05/20 03:37:47;;;;;;;5.33;2.97;;;;;;;;;;5031139;28;20195;-84
2022/05/20 03:40:51;;;;;;;8.87;3.37;;;;;;;;;;5044916;28;20216;-84
2022/05/20 03:43:55;;;;;;;5.03;3.00;;;;;;;;;;5023134;28;20180;-84
2022/05/20 03:46:59;;;;;;;3.70;3.10;;;;;;;;;;5034145;28;20184;-84
2022/05/20 03:50:04;;;;;;;7.53;3.20;;;;;;;;;;5033379;28;20227;-84
2022/05/20 03:53:09;;;;;;;3.00;2.70;;;;;;;;;;5022694;28;20627;-84
2022/05/20 03:56:13;;;;;;;3.57;3.00;;;;;;;;;;5023664;28;20184;-84
2022/05/20 03:59:17;;;;;;;3.77;3.10;;;;;;;;;;5024239;28;20528;-84
2022/05/20 04:02:21;;;;;;;3.23;2.80;;;;;;;;;;5024216;28;20176;-84
2022/05/20 04:05:25;;;;;;;6.17;3.03;;;;;;;;;;5046475;28;20195;-84
2022/05/20 04:08:29;;;;;;;6.17;2.93;;;;;;;;;;5024106;28;20662;-84
2022/05/20 04:11:34;;;;;;;3.60;2.93;;;;;;;;;;5021734;28;20211;-84
2022/05/20 04:14:38;;;;;;;7.93;3.10;;;;;;;;;;5033350;28;20177;-84
2022/05/20 04:17:42;;;;;;;4.80;2.90;;;;;;;;;;5021982;28;20176;-85
2022/05/20 04:20:47;;;;;;;4.50;2.73;;;;;;;;;;5021567;28;20682;-85
2022/05/20 04:23:51;;;;;;;7.67;3.20;;;;;;;;;;5032273;28;20662;-85
2022/05/20 04:26:56;;;;;;;4.63;3.17;;;;;;;;;;5021310;28;20196;-85
2022/05/20 04:30:00;;;;;;;3.70;2.80;;;;;;;;;;5043421;28;20227;-85
2022/05/20 04:33:03;;;;;;;4.60;2.90;;;;;;;;;;5033134;28;20172;-84
2022/05/20 04:36:08;;;;;;;6.73;3.30;;;;;;;;;;5021392;28;20183;-84
2022/05/20 04:39:12;;;;;;;5.80;3.30;;;;;;;;;;5022016;28;20172;-85
2022/05/20 04:49:05;;;;;;;4.03;3.20;;;;;;;;;;5034935;28;20656;-85
2022/05/20 04:52:10;;;;;;;8.93;4.10;;;;;;;;;;5022979;28;20176;-84
2022/05/20 04:55:14;;;;;;;5.53;3.77;;;;;;;;;;5045122;28;20176;-84
2022/05/20 04:58:18;;;;;;;5.53;3.70;;;;;;;;;;5021766;28;20513;-84
2022/05/20 05:01:22;;;;;;;6.27;3.70;;;;;;;;;;5020673;28;20208;-85
2022/05/20 05:04:26;;;;;;;5.60;4.37;;;;;;;;;;5020861;28;20195;-85
2022/05/20 05:07:31;;;;;;;8.47;3.83;;;;;;;;;;5043694;28;20184;-86
2022/05/20 05:10:36;;;;;;;5.93;4.07;;;;;;;;;;5031614;28;20224;-85
2022/05/20 05:13:40;;;;;;;4.17;3.70;;;;;;;;;;5043255;28;20181;-85
2022/05/20 05:16:44;;;;;;;5.13;3.63;;;;;;;;;;5031999;28;20635;-85
2022/05/20 05:19:48;;;;;;;6.07;3.80;;;;;;;;;;5031460;28;20215;-85
2022/05/20 05:22:55;;;;;;;7.67;3.83;;;;;;;;;;5031941;28;20188;-86
2022/05/20 05:25:59;;;;;;;8.87;3.87;;;;;;;;;;5031895;28;20176;-86
2022/05/20 05:29:04;;;;;;;9.13;4.13;;;;;;;;;;5020546;28;20180;-86
2022/05/20 05:32:08;;;;;;;10.97;3.97;;;;;;;;;;5031027;28;20192;-85
2022/05/20 05:35:17;;;;;;;6.70;3.47;;;;;;;;;;5031549;28;20176;-85
2022/05/20 05:38:21;;;;;;;4.97;3.80;;;;;;;;;;5031236;28;20515;-85
2022/05/20 05:41:25;;;;;;;3.60;2.70;;;;;;;;;;5019943;28;20220;-85
2022/05/20 05:44:29;;;;;;;5.30;3.33;;;;;;;;;;5031279;28;20176;-85
2022/05/20 05:47:33;;;;;;;9.83;4.23;;;;;;;;;;5019964;28;20176;-85
2022/05/20 05:50:41;;;;;;;6.77;3.30;;;;;;;;;;5031232;28;20228;-85
2022/05/20 05:53:45;;;;;;;4.57;3.10;;;;;;;;;;5019514;28;20204;-85
2022/05/20 05:56:49;;;;;;;6.77;3.57;;;;;;;;;;5020089;28;20524;-85
2022/05/20 05:59:53;;;;;;;5.17;3.20;;;;;;;;;;5019075;28;20216;-85
2022/05/20 06:02:58;;;;;;;5.30;3.50;;;;;;;;;;5019910;28;20180;-85
2022/05/20 06:06:02;;;;;;;4.77;3.07;;;;;;;;;;5019791;28;20516;-85
2022/05/20 06:09:06;;;;;;;4.53;3.27;;;;;;;;;;5031008;28;20188;-85
2022/05/20 06:12:11;;;;;;;8.90;3.30;;;;;;;;;;5019692;28;20176;-85
2022/05/20 06:15:18;;;;;;;5.40;2.87;;;;;;;;;;5030444;28;20176;-85
2022/05/20 06:18:23;;;;;;;8.83;2.90;;;;;;;;;;5042252;28;20176;-85
2022/05/20 06:21:27;;;;;;;6.17;3.20;;;;;;;;;;5030546;28;20212;-85
2022/05/20 06:24:31;;;;;;;5.83;2.57;;;;;;;;;;5018903;28;20635;-85
2022/05/20 06:27:38;;;;;;;5.63;2.87;;;;;;;;;;5042098;28;20180;-85
2022/05/20 06:30:43;;;;;;;2.63;2.43;;;;;;;;;;5030126;28;20224;-85
2022/05/20 06:33:48;;;;;;;3.93;2.63;;;;;;;;;;5019618;28;20184;-85
2022/05/20 06:40:18;;;;;;;4.67;2.87;;;;;;;;;;5030422;28;20691;-85
2022/05/20 06:43:22;;;;;;;3.10;2.80;;;;;;;;;;5030444;28;20172;-85
2022/05/20 06:46:26;;;;;;;5.87;2.73;;;;;;;;;;5029909;28;20192;-85
2022/05/20 06:49:31;;;;;;;7.13;2.90;;;;;;;;;;5030199;28;20223;-86
2022/05/20 06:52:35;;;;;;;5.07;3.00;;;;;;;;;;5030301;28;20180;-86
2022/05/20 06:55:39;;;;;;;8.20;3.10;;;;;;;;;;5018771;28;20188;-86
2022/05/20 06:58:44;;;;;;;5.73;3.40;;;;;;;;;;5019370;28;20611;-86
2022/05/20 07:01:48;;;;;;;3.53;2.70;;;;;;;;;;5030176;28;20176;-86
2022/05/20 07:04:52;;;;;;;6.97;3.10;;;;;;;;;;5018729;28;20195;-86
2022/05/20 07:07:56;;;;;;;4.23;2.53;;;;;;;;;;5019282;28;20191;-86
2022/05/20 07:11:02;;;;;;;5.03;3.03;;;;;;;;;;5029752;28;20228;-86
2022/05/20 07:14:06;;;;;;;2.90;2.53;;;;;;;;;;5045481;28;20520;-86
2022/05/20 07:17:16;;;;;;;4.83;2.77;;;;;;;;;;5034069;28;20176;-86
2022/05/20 07:20:20;;;;;;;8.00;2.53;;;;;;;;;;5034545;28;20212;-86
2022/05/20 07:23:28;;;;;;;3.90;2.77;;;;;;;;;;5045631;28;20176;-86
2022/05/20 07:26:33;;;;;;;4.83;2.70;;;;;;;;;;5034023;28;20180;-86
2022/05/20 07:29:38;;;;;;;4.67;2.40;;;;;;;;;;5034067;28;20223;-86
2022/05/20 07:32:42;;;;;;;5.83;2.77;;;;;;;;;;5045454;28;20175;-86
2022/05/20 07:35:46;;;;;;;5.67;2.63;;;;;;;;;;5022887;28;20180;-86
2022/05/20 07:38:51;;;;;;;2.60;2.40;;;;;;;;;;5022460;28;20179;-86
2022/05/20 07:41:55;;;;;;;2.97;2.63;;;;;;;;;;5034138;28;20174;-86
2022/05/20 07:44:59;;;;;;;3.03;2.70;;;;;;;;;;5034000;28;20203;-86
2022/05/20 07:48:04;;;;;;;4.13;2.40;;;;;;;;;;5022333;28;20554;-86
2022/05/20 07:51:12;;;;;;;5.30;2.58;;;;;;;;;;5033713;28;20225;-85
2022/05/20 07:54:23;;;;;;;3.03;2.40;;;;;;;;;;5022272;28;20187;-86
2022/05/20 07:57:28;;;;;;;5.43;2.63;;;;;;;;;;5021891;28;20673;-86
2022/05/20 08:00:33;;;;;;;5.45;2.83;;;;;;;;;;5033541;28;20700;-86
2022/05/20 08:07:02;;;;;;;4.85;2.35;;;;;;;;;;5033441;28;20184;-86
2022/05/20 08:10:11;;;;;;;2.83;2.33;;;;;;;;;;5033177;28;20218;-86
2022/05/20 08:13:15;;;;;;;4.00;2.10;;;;;;;;;;5033261;28;20188;-86
2022/05/20 08:16:19;;;;;;;4.32;2.55;;;;;;;;;;5032717;28;20196;-85
2022/05/20 08:19:23;;;;;;;4.13;2.35;;;;;;;;;;5044339;28;20520;-86
2022/05/20 08:22:27;;;;;;;6.00;2.28;;;;;;;;;;5032773;28;20508;-86
2022/05/20 08:25:32;;;;;;;3.80;2.33;;;;;;;;;;5022096;28;20185;-86
2022/05/20 08:28:36;;;;;;;2.20;2.00;;;;;;;;;;5032710;28;20192;-86
2022/05/20 08:31:43;;;;;;;4.40;2.17;;;;;;;;;;5033062;28;20205;-86
2022/05/20 08:34:48;;;;;;;3.50;2.15;;;;;;;;;;5044511;28;20620;-86
2022/05/20 08:37:53;;;;;;;3.53;2.00;;;;;;;;;;5043936;28;20173;-85
2022/05/20 08:40:59;;;;;;;3.97;2.67;;;;;;;;;;5032259;28;20216;-85
2022/05/20 08:44:06;;;;;;;2.58;1.95;;;;;;;;;;5033182;28;20505;-85
2022/05/20 08:47:39;;;;;;;8.57;2.20;;;;;;;;;;5021199;28;20180;-85
2022/05/20 08:50:46;;;;;;;3.83;2.10;;;;;;;;;;5032486;28;20228;-85
2022/05/20 08:53:50;;;;;;;4.25;2.40;;;;;;;;;;5031952;28;20200;-85
2022/05/20 08:56:54;;;;;;;3.25;1.98;;;;;;;;;;5032073;28;20200;-85
2022/05/20 09:00:01;;;;;;;7.28;2.15;;;;;;;;;;5031961;28;20212;-84
2022/05/20 09:03:07;;;;;;;4.90;2.20;;;;;;;;;;5055844;28;20172;-85
2022/05/20 09:06:15;;;;;;;6.78;2.45;;;;;;;;;;5020839;28;20516;-85
2022/05/20 09:09:20;;;;;;;4.82;1.90;;;;;;;;;;5043524;28;20181;-85
2022/05/20 09:12:31;;;;;;;2.75;2.08;;;;;;;;;;5020901;28;20204;-85
2022/05/20 09:15:46;;;;;;;3.08;2.03;;;;;;;;;;5031847;28;20200;-85
2022/05/20 09:19:02;;;;;;;2.30;2.10;;;;;;;;;;5042834;28;20542;-85
2022/05/20 09:22:12;;;;;;;3.15;2.08;;;;;;;;;;5032128;28;20181;-85
2022/05/20 09:25:26;;;;;;;7.45;2.42;;;;;;;;;;5021108;28;20185;-85
2022/05/20 09:28:38;;;;;;;5.07;2.30;;;;;;;;;;5020996;28;20184;-85
2022/05/20 09:31:51;;;;;;;4.82;2.40;;;;;;;;;;5020384;28;20208;-85
2022/05/20 09:35:01;;;;;;;2.45;2.25;;;;;;;;;;5030327;28;20181;-85
2022/05/20 09:38:10;;;;;;;4.43;2.03;;;;;;;;;;5031208;28;20180;-85
2022/05/20 09:41:21;;;;;;;3.40;1.88;;;;;;;;;;5031260;28;20208;-85
2022/05/20 09:44:33;;;;;;;6.85;2.22;;;;;;;;;;5020391;28;20201;-85
2022/05/20 09:47:37;;;;;;;7.65;2.58;;;;;;;;;;5031565;28;20189;-85
2022/05/20 09:50:57;;;;;;;2.45;2.22;;;;;;;;;;5030952;28;20219;-85
2022/05/20 09:54:22;;;;;;;8.10;2.50;;;;;;;;;;5042272;28;20196;-85
2022/05/20 09:57:37;;;;;;;5.28;2.30;;;;;;;;;;5031181;28;20180;-85
2022/05/20 10:00:47;;;;;;;4.70;2.22;;;;;;;;;;5042175;28;20216;-85
2022/05/20 10:03:57;;;;;;;4.47;2.67;;;;;;;;;;5019961;28;20513;-85
2022/05/20 10:07:04;;;;;;;2.92;2.30;;;;;;;;;;5031139;28;20181;-85
2022/05/20 10:10:15;;;;;;;4.18;2.47;;;;;;;;;;5030686;28;20208;-85
2022/05/20 10:13:33;;;;;;;4.88;2.40;;;;;;;;;;5031181;28;20173;-85
2022/05/20 10:16:45;;;;;;;4.03;2.60;;;;;;;;;;5019761;28;20181;-85
2022/05/20 10:20:28;;;;;;;3.75;2.70;;;;;;;;;;5030841;28;20217;-85
2022/05/20 10:23:39;;;;;;;4.53;2.80;;;;;;;;;;5030560;28;20181;-85
2022/05/20 10:26:50;;;;;;;4.35;2.45;;;;;;;;;;5019396;28;20172;-85
2022/05/20 10:33:48;;;;;;;6.72;2.40;;;;;;;;;;5036612;23;20236;-83
2022/05/20 10:37:17;;;;;;;2.72;2.25;;;;;;;;;;5002798;28;20193;-83
2022/05/20 10:40:51;;;;;;;5.18;2.40;;;;;;;;;;5036027;28;20181;-83
2022/05/20 10:52:22;;;;;;;5.65;2.38;;;;;;;;;;5005207;28;20182;-83
2022/05/20 10:55:51;;;;;;;4.90;2.35;;;;;;;;;;4993198;28;20186;-83
2022/05/20 10:59:20;;;;;;;2.95;2.08;;;;;;;;;;5004909;28;20529;-83
2022/05/20 11:02:41;;;;;;;4.05;2.65;;;;;;;;;;4993797;28;20568;-84
2022/05/20 11:06:06;;;;;;;7.65;2.28;;;;;;;;;;5005905;28;20190;-83
2022/05/20 11:09:44;;;;;;;7.68;2.63;;;;;;;;;;5004687;28;20174;-83
2022/05/20 11:12:57;;;;;;;3.20;2.30;;;;;;;;;;5004109;28;20683;-83
2022/05/20 11:16:02;;;;;;;7.82;3.03;;;;;;;;;;5003393;28;20178;-83
2022/05/20 11:19:21;;;;;;;4.90;2.42;;;;;;;;;;5004092;28;20174;-83
2022/05/20 11:22:38;;;;;;;2.95;2.13;;;;;;;;;;4993710;28;20229;-83
2022/05/20 11:25:49;;;;;;;2.38;1.90;;;;;;;;;;5005021;28;20648;-83
2022/05/20 11:29:17;;;;;;;4.05;2.40;;;;;;;;;;4994501;28;20190;-83
2022/05/20 11:32:43;;;;;;;6.03;2.90;;;;;;;;;;5004468;28;20217;-83
2022/05/20 11:36:21;;;;;;;3.70;2.10;;;;;;;;;;4982588;28;20182;-83
2022/05/20 11:40:03;;;;;;;9.23;2.80;;;;;;;;;;4993140;28;20526;-83
2022/05/20 11:43:53;;;;;;;3.67;2.22;;;;;;;;;;5005987;28;20229;-84
2022/05/20 11:47:25;;;;;;;3.22;2.17;;;;;;;;;;5003799;28;20503;-83
2022/05/20 11:51:07;;;;;;;3.60;2.40;;;;;;;;;;4992786;28;20182;-83
2022/05/20 11:54:19;;;;;;;5.50;2.53;;;;;;;;;;5004909;28;20633;-83
2022/05/20 11:57:28;;;;;;;7.95;2.60;;;;;;;;;;5004609;28;20182;-83
2022/05/20 12:00:37;;;;;;;4.50;2.60;;;;;;;;;;4996815;28;20182;-83
2022/05/20 12:07:10;;;;;;;5.03;2.30;;;;;;;;;;5022289;28;20186;-83
2022/05/20 12:10:38;;;;;;;8.30;2.40;;;;;;;;;;5008901;28;20197;-83
2022/05/20 12:14:07;;;;;;;4.75;2.47;;;;;;;;;;4986750;28;20688;-83
2022/05/20 12:17:11;;;;;;;4.10;2.33;;;;;;;;;;4997363;28;20182;-83
2022/05/20 12:24:12;;;;;;;3.92;1.92;;;;;;;;;;4996300;28;20224;-83
2022/05/20 12:27:25;;;;;;;5.72;2.35;;;;;;;;;;5007906;28;20186;-83
2022/05/20 12:30:38;;;;;;;6.85;2.15;;;;;;;;;;5007298;28;20201;-83
2022/05/20 12:34:00;;;;;;;4.75;2.58;;;;;;;;;;4996813;28;20210;-83
2022/05/20 12:37:05;;;;;;;7.32;2.55;;;;;;;;;;4995611;28;20186;-83
2022/05/20 12:40:27;;;;;;;3.47;2.25;;;;;;;;;;5007593;28;20186;-83
2022/05/20 12:43:46;;;;;;;5.07;2.30;;;;;;;;;;4996690;28;20225;-83
2022/05/20 12:47:14;;;;;;;5.57;2.35;;;;;;;;;;5020831;28;20186;-83
2022/05/20 12:50:26;;;;;;;5.70;2.55;;;;;;;;;;4996470;28;20178;-83
2022/05/20 12:53:32;;;;;;;4.18;2.13;;;;;;;;;;4995475;28;20210;-83
2022/05/20 12:56:36;;;;;;;3.85;2.30;;;;;;;;;;4996533;28;20178;-83
2022/05/20 12:59:41;;;;;;;6.40;2.30;;;;;;;;;;4995824;28;20178;-83
2022/05/20 13:02:53;;;;;;;5.30;2.55;;;;;;;;;;4996126;28;20221;-83
2022/05/20 13:06:13;;;;;;;7.47;2.78;;;;;;;;;;4996779;28;20190;-83
2022/05/20 13:09:27;;;;;;;6.70;2.58;;;;;;;;;;4995806;28;20186;-83
2022/05/20 13:12:31;;;;;;;4.97;2.60;;;;;;;;;;5006287;28;20214;-83
2022/05/20 13:16:00;;;;;;;6.03;2.35;;;;;;;;;;4983701;28;20529;-83
2022/05/20 13:19:11;;;;;;;3.60;2.20;;;;;;;;;;4984667;28;20625;-83
2022/05/20 13:22:21;;;;;;;2.67;2.15;;;;;;;;;;4995618;28;20221;-83
2022/05/20 13:25:26;;;;;;;5.50;2.78;;;;;;;;;;4995090;28;20190;-83
2022/05/20 13:28:33;;;;;;;4.97;2.35;;;;;;;;;;5019472;28;20182;-83
2022/05/20 13:31:38;;;;;;;7.07;2.50;;;;;;;;;;5008507;28;20205;-83
2022/05/20 13:34:43;;;;;;;9.20;2.88;;;;;;;;;;5020199;28;20197;-83
2022/05/20 13:37:51;;;;;;;4.70;2.30;;;;;;;;;;4996652;28;20549;-83
2022/05/20 13:40:57;;;;;;;3.13;2.63;;;;;;;;;;5006632;28;20209;-83
2022/05/20 13:44:04;;;;;;;4.38;2.50;;;;;;;;;;4995164;28;20217;-83
2022/05/20 13:50:33;;;;;;;5.78;2.67;;;;;;;;;;4996377;28;20182;-83
2022/05/20 13:53:40;;;;;;;5.88;2.30;;;;;;;;;;5007051;28;20214;-83
2022/05/20 13:56:48;;;;;;;5.20;2.72;;;;;;;;;;4988645;28;20178;-83
2022/05/20 13:59:57;;;;;;;5.82;2.30;;;;;;;;;;4999779;28;20186;-83
2022/05/20 14:03:21;;;;;;;4.28;2.30;;;;;;;;;;5010621;28;20229;-83
2022/05/20 14:06:29;;;;;;;4.38;2.40;;;;;;;;;;4999854;28;20522;-83
2022/05/20 14:09:38;;;;;;;8.43;2.33;;;;;;;;;;5005339;28;20186;-83
2022/05/20 14:12:51;;;;;;;6.38;2.65;;;;;;;;;;5005339;28;20213;-83
2022/05/20 14:15:59;;;;;;;6.88;2.70;;;;;;;;;;4983557;28;20708;-83
2022/05/20 14:19:23;;;;;;;5.45;2.55;;;;;;;;;;5007869;28;20197;-83
2022/05/20 14:22:32;;;;;;;4.32;2.30;;;;;;;;;;5016422;28;20225;-83
2022/05/20 14:25:55;;;;;;;4.38;2.30;;;;;;;;;;5000151;28;20182;-83
2022/05/20 14:28:59;;;;;;;6.72;2.50;;;;;;;;;;5011759;28;20182;-83
2022/05/20 14:32:08;;;;;;;8.13;2.40;;;;;;;;;;5000140;28;20221;-83
2022/05/20 14:35:12;;;;;;;9.55;2.83;;;;;;;;;;4989316;28;20178;-83
2022/05/20 14:38:21;;;;;;;7.03;2.50;;;;;;;;;;5000394;28;20178;-83
2022/05/20 14:41:27;;;;;;;13.00;2.67;;;;;;;;;;5006687;28;20194;-83
2022/05/20 14:44:31;;;;;;;4.88;2.65;;;;;;;;;;5006768;28;20190;-83
2022/05/20 14:47:38;;;;;;;8.10;2.42;;;;;;;;;;4994508;28;20516;-83
2022/05/20 14:50:47;;;;;;;4.35;2.60;;;;;;;;;;4983369;28;20182;-83
2022/05/20 14:53:59;;;;;;;7.97;2.30;;;;;;;;;;4993605;28;20209;-83
2022/05/20 14:57:35;;;;;;;8.32;2.38;;;;;;;;;;5005411;28;20635;-83
2022/05/20 15:00:51;;;;;;;4.97;2.25;;;;;;;;;;4993693;28;20174;-83
2022/05/20 15:03:55;;;;;;;3.45;2.00;;;;;;;;;;5017018;28;20222;-83
2022/05/20 15:07:02;;;;;;;4.07;1.95;;;;;;;;;;4993889;28;20190;-83
2022/05/20 15:10:17;;;;;;;5.13;2.33;;;;;;;;;;4993841;28;20178;-83
2022/05/20 15:13:22;;;;;;;9.55;2.55;;;;;;;;;;5005152;28;20214;-83
2022/05/20 15:16:27;;;;;;;5.60;2.00;;;;;;;;;;4982260;28;20201;-83
2022/05/20 15:19:32;;;;;;;7.13;2.30;;;;;;;;;;4993038;28;20656;-83
2022/05/20 15:22:36;;;;;;;5.30;2.38;;;;;;;;;;4993240;28;20225;-83
2022/05/20 15:25:40;;;;;;;4.97;1.90;;;;;;;;;;4994279;28;20186;-83
2022/05/20 15:28:47;;;;;;;7.28;2.90;;;;;;;;;;4993389;28;20178;-83
2022/05/20 15:35:14;;;;;;;6.80;2.55;;;;;;;;;;4997336;28;20198;-83
2022/05/20 15:38:18;;;;;;;5.07;2.40;;;;;;;;;;4997267;28;20201;-83
2022/05/20 15:41:24;;;;;;;7.10;2.50;;;;;;;;;;4997057;28;20193;-83
2022/05/20 15:44:28;;;;;;;5.82;2.83;;;;;;;;;;4985472;28;20684;-83
2022/05/20 15:47:33;;;;;;;11.18;2.45;;;;;;;;;;4997064;28;20198;-82
2022/05/20 15:50:37;;;;;;;5.32;2.40;;;;;;;;;;4996969;28;20182;-82
2022/05/20 15:53:42;;;;;;;6.75;2.40;;;;;;;;;;4996233;28;20214;-82
2022/05/20 15:56:47;;;;;;;4.47;2.40;;;;;;;;;;4985897;28;20182;-83
2022/05/20 15:59:52;;;;;;;8.68;2.60;;;;;;;;;;4996739;28;20548;-83
2022/05/20 16:02:56;;;;;;;6.20;2.40;;;;;;;;;;4997386;28;20225;-83
2022/05/20 16:06:00;;;;;;;7.10;2.60;;;;;;;;;;4997439;28;20186;-82
2022/05/20 16:09:06;;;;;;;5.72;2.33;;;;;;;;;;4996104;28;20178;-82
2022/05/20 16:12:11;;;;;;;4.90;2.20;;;;;;;;;;5007793;28;20589;-83
2022/05/20 16:15:15;;;;;;;5.90;2.60;;;;;;;;;;4985144;28;20178;-82
2022/05/20 16:18:19;;;;;;;5.90;2.35;;;;;;;;;;5007672;28;20541;-82
2022/05/20 16:21:24;;;;;;;4.97;2.10;;;;;;;;;;4985062;28;20633;-82
2022/05/20 16:24:28;;;;;;;3.25;2.20;;;;;;;;;;5006955;28;20213;-82
2022/05/20 16:27:39;;;;;;;6.85;2.38;;;;;;;;;;5007931;28;20553;-82
2022/05/20 16:30:42;;;;;;;9.13;2.47;;;;;;;;;;4995985;28;20182;-82
2022/05/20 16:33:47;;;;;;;5.07;2.20;;;;;;;;;;5050467;23;20586;-85
2022/05/20 16:36:52;;;;;;;6.00;2.15;;;;;;;;;;5032694;28;20184;-86
2022/05/20 16:39:56;;;;;;;4.07;2.08;;;;;;;;;;5043889;28;20179;-85
2022/05/20 16:43:00;;;;;;;6.32;2.22;;;;;;;;;;5043523;28;20209;-86
2022/05/20 16:46:05;;;;;;;7.13;2.50;;;;;;;;;;5020995;28;20188;-86
2022/05/20 16:49:14;;;;;;;8.60;2.80;;;;;;;;;;5021222;28;20187;-86
2022/05/20 16:52:19;;;;;;;6.10;2.17;;;;;;;;;;5032440;28;20187;-86
2022/05/20 16:55:24;;;;;;;5.78;2.30;;;;;;;;;;5032315;28;20174;-85
2022/05/20 17:01:52;;;;;;;8.02;2.45;;;;;;;;;;5031922;28;20188;-86
2022/05/20 17:04:57;;;;;;;6.95;2.50;;;;;;;;;;5033634;28;20204;-85
2022/05/20 17:08:01;;;;;;;4.70;2.20;;;;;;;;;;5020983;28;20201;-86
2022/05/20 17:11:07;;;;;;;4.47;2.85;;;;;;;;;;5031673;28;20203;-85
2022/05/20 17:14:12;;;;;;;5.38;2.20;;;;;;;;;;5031554;28;20215;-85
2022/05/20 17:17:17;;;;;;;7.68;2.60;;;;;;;;;;5020778;28;20178;-85
2022/05/20 17:20:21;;;;;;;3.55;2.15;;;;;;;;;;5043447;28;20638;-85
2022/05/20 17:26:53;;;;;;;6.80;2.15;;;;;;;;;;5032011;28;20186;-85
2022/05/20 17:30:00;;;;;;;9.23;2.28;;;;;;;;;;5020840;28;20528;-86
2022/05/20 17:33:05;;;;;;;4.55;2.47;;;;;;;;;;5042612;28;20225;-86
2022/05/20 17:36:08;;;;;;;10.50;2.45;;;;;;;;;;5020270;28;20628;-86
2022/05/20 17:39:13;;;;;;;4.32;2.30;;;;;;;;;;5031622;28;20187;-85
2022/05/20 17:42:17;;;;;;;6.05;2.20;;;;;;;;;;5020375;28;20178;-85
2022/05/20 17:45:22;;;;;;;6.40;2.47;;;;;;;;;;5042801;28;20208;-86
2022/05/20 17:48:26;;;;;;;6.78;2.28;;;;;;;;;;5019900;28;20532;-85
2022/05/20 17:51:31;;;;;;;4.30;2.10;;;;;;;;;;5020161;28;20177;-85
2022/05/20 17:54:35;;;;;;;4.97;2.40;;;;;;;;;;5042163;28;20212;-85
2022/05/20 17:57:40;;;;;;;6.85;2.50;;;;;;;;;;5019593;28;20200;-85
2022/05/20 18:00:44;;;;;;;7.20;2.55;;;;;;;;;;5019557;28;20200;-85
2022/05/20 18:03:48;;;;;;;7.88;2.60;;;;;;;;;;5030891;28;20222;-85
2022/05/20 18:06:52;;;;;;;5.68;2.72;;;;;;;;;;5042435;28;20186;-85
2022/05/20 18:09:56;;;;;;;5.15;2.83;;;;;;;;;;5031278;28;20177;-85
2022/05/20 18:13:01;;;;;;;7.30;2.70;;;;;;;;;;5030867;28;20223;-85
2022/05/20 18:16:06;;;;;;;7.22;2.83;;;;;;;;;;5019524;28;20171;-85
2022/05/20 18:19:10;;;;;;;7.00;3.22;;;;;;;;;;5031179;28;20529;-85
2022/05/20 18:22:15;;;;;;;7.72;2.70;;;;;;;;;;5019930;28;20529;-86
2022/05/20 18:25:20;;;;;;;5.90;2.77;;;;;;;;;;5032315;28;20214;-85
2022/05/20 18:28:25;;;;;;;7.17;2.77;;;;;;;;;;5030584;28;20178;-85
2022/05/20 18:31:30;;;;;;;5.82;2.90;;;;;;;;;;5019298;28;20182;-85
2022/05/20 18:41:21;;;;;;;6.60;2.73;;;;;;;;;;5030783;28;20184;-85
2022/05/20 18:44:25;;;;;;;5.80;2.83;;;;;;;;;;5030472;28;20218;-85
2022/05/20 18:47:29;;;;;;;11.20;3.13;;;;;;;;;;5030497;28;20185;-85
2022/05/20 18:50:33;;;;;;;5.50;2.97;;;;;;;;;;5019118;28;20176;-85
2022/05/20 18:53:38;;;;;;;6.77;2.80;;;;;;;;;;5030214;28;20552;-85
2022/05/20 18:56:42;;;;;;;7.37;2.73;;;;;;;;;;5019243;28;20186;-85
2022/05/20 18:59:47;;;;;;;6.20;2.90;;;;;;;;;;5030681;28;20183;-85
2022/05/20 19:02:51;;;;;;;9.63;2.63;;;;;;;;;;5018754;28;20216;-85
2022/05/20 19:05:56;;;;;;;6.60;2.90;;;;;;;;;;5030266;28;20183;-85
2022/05/20 19:09:00;;;;;;;8.40;3.13;;;;;;;;;;5025193;28;20186;-85
2022/05/20 19:12:09;;;;;;;10.00;3.13;;;;;;;;;;5048142;28;20180;-85
2022/05/20 19:15:14;;;;;;;6.70;2.80;;;;;;;;;;5025155;28;20181;-85
2022/05/20 19:18:18;;;;;;;7.90;3.23;;;;;;;;;;5024947;28;20198;-85
2022/05/20 19:21:22;;;;;;;8.37;2.90;;;;;;;;;;5025547;28;20520;-85
2022/05/20 19:24:28;;;;;;;4.40;2.67;;;;;;;;;;5036107;28;20561;-85
2022/05/20 19:27:32;;;;;;;9.93;2.90;;;;;;;;;;5036642;28;20179;-85
2022/05/20 19:30:36;;;;;;;8.37;3.27;;;;;;;;;;5025131;28;20520;-85
2022/05/20 19:33:41;;;;;;;9.20;2.80;;;;;;;;;;5024963;28;20229;-85
2022/05/20 19:36:45;;;;;;;5.37;2.67;;;;;;;;;;5036262;28;20195;-85
2022/05/20 19:39:49;;;;;;;4.87;3.03;;;;;;;;;;5025287;28;20553;-85
2022/05/20 19:42:54;;;;;;;4.43;2.87;;;;;;;;;;5025137;28;20213;-85
2022/05/20 19:45:58;;;;;;;9.37;2.87;;;;;;;;;;5024470;28;20219;-85
2022/05/20 19:49:02;;;;;;;6.70;3.00;;;;;;;;;;5024811;28;20196;-85